Impacts TAF Board
For situational awareness. Not to be used for flight planning purposes.
IDs:

KBWI - Baltimore-Washington, MD, US

Issued at 2103 UTC 19 Jan 2019
Updated at 2145 UTC 19 Jan 2019
Potential Impact None Slight Moderate High
Time<<20/10Z 20/11Z 20/12Z 20/13Z 20/14Z 20/15Z 20/16Z 20/17Z 20/18Z 20/19Z 20/20Z 20/21Z 20/22Z>>
Type PRVL PRVL PRVL PRVL PRVL PRVL PRVL PRVL PRVL PRVL PRVL PRVL PRVL
VIS 1 1 1 1 >6 >6 >6 >6 >6 >6 >6 >6 >6
CIG 3 3 3 3 10 10 10 10 35 35 35 35 35
Cover OVC OVC OVC OVC OVC OVC OVC OVC BKN BKN BKN BKN BKN
FltCat LIFR LIFR LIFR LIFR MVFR MVFR MVFR MVFR VFR VFR VFR VFR VFR
WX -RA -RA -RA -RA -- -- -- -- -- -- -- -- --
WDir 200 240 240 240 290 290 290 290 320 320 320 320 320
WSpd 6 7 7 7 13 13 13 13 20 20 20 20 20
WGst -- -- -- -- 24 24 24 24 34 34 34 34 34
Raw TAF
KBWI 192103Z 1921/2024 08010KT 5SM -RA BR OVC010
  FM200000 10010G18KT 2SM -RA OVC003
  FM200300 20006KT 1SM -RA OVC003
  FM201100 24007KT 1SM -RA OVC003
  FM201400 29013G24KT P6SM OVC010
  FM201800 32020G34KT P6SM BKN035


METAR Board
Radar Display
Forecast Discussion
For situational awareness. Not to be used for flight planning purposes.